Sand Point, AK

9:13 PM AKDT on September 15, 2014 (GMT -0800)
Chignik | Change Station
CLOSE
Current Station
Airport
Location: Chignik,
Elevation: 16 ft
Nearby Weather Stations

Elev 16 ft 56.31 °N, 158.37 °W | Updated 17 minutes ago

Overcast
Overcast
52 °F
Feels Like 52 °F
N
0
Wind Variable Wind from North

Today
High -- | Low -- °F
--% Chance of Precip.
Yesterday
High -- | Low -- °F
Precip. -- in
8:15 AM 8:59 PM
Waning Gibbous, 49% visible
Pressure 29.72 in
Visibility 10.0 miles
Clouds Overcast 4300 ft
Dew Point 45 °F
Humidity 76%
Rainfall 0.32 in
Snow Depth 1 in , 1 in , 2 in
UV 0 out of 12
Pollen Not available.
Air Quality Not available.
Flu Activity Not available.
METAR PAJC 160456Z AUTO 00000KT 10SM OVC043 11/07 A2972 RMK AO1

More Conditions Fewer Conditions

Pressure 29.72 in
Visibility 10.0 miles
Clouds Overcast 4300 ft
Dew Point 45 °F
Humidity 76%
Rainfall 0.32 in
Snow Depth 1 in , 1 in , 2 in
UV 0 out of 12
Pollen Not available.
Air Quality Not available.
Flu Activity Not available.
METAR PAJC 160456Z AUTO 00000KT 10SM OVC043 11/07 A2972 RMK AO1

More Conditions Fewer Conditions

10-Day Weather Forecast

Almanac

Astronomy

Sep. 15, 2014 Rise Set
Actual Time 8:15 AM AKDT 8:59 PM AKDT
Civil Twilight 7:38 AM AKDT 9:35 PM AKDT
Nautical Twilight 6:53 AM AKDT 10:20 PM AKDT
Astronomical Twilight 6:05 AM AKDT 11:07 PM AKDT
Moon 12:04 AM AKDT (9/15) 4:26 PM AKDT (9/15)
Length of Visible Light 13h 57m
Length of Day
12h 43m
Tomorrow will be 4m 29s shorter.
Waning Gibbous, 49% of the Moon is Illuminated
Sep 16
Waning Gibbous
Sep 24
New
Oct 1
First Quarter
Oct 8
Full
Oct 15
Last Quarter

Yesterday's Extremes

State Highs State Lows

Community

WunderPhotos

Upload Photos

1,753,702 photos uploaded!

Nearby

Snow Depth

Station Depth Elevation
Indian Pass 1 in 2300 ft
Munson Ridge 1 in 3100 ft
Coldfoot 0 in 1040 ft
Susitna Valley High 2 in 375 ft
Rocky Point 4 in 500 ft

Earthquake Activity

City Distance Mag. Time & Date
No recent earthquake activity has been reported nearby.
Minimum magnitude displayed is 2.5.

Coastal Water Temperatures

Place Temperature
No Stations Reporting

Nearby Weather Stations